Albion, NY (14411)

9:36 PM EDT on September 01, 2015 (GMT -0400)
Orleans Poverty Hill Farms | | Change Station
CLOSE
Current Station
Personal Weather Station
Location: Albion, NY
Elevation: 597 ft
Nearby Weather Stations

Elev 597 ft 43.22 °N, 78.24 °W | Updated 1 minute ago

Clear
Clear
72.7 °F
Feels Like 71 °F
N
4.0
Wind Variable Wind from West
Gusts 6.0 mph

Today
High -- | Low -- °F
--% Chance of Precip.
Yesterday
High -- | Low -- °F
Precip. -- in
6:36 AM 7:48 PM
Waning Gibbous, 85% visible
Pressure 30.06 in
Visibility 8.0 miles
Clouds Clear
Heat Index 71 °F
Dew Point 69 °F
Humidity 89%
Rainfall 0.00 in
Snow Depth Not available.
UV 0 out of 12
Pollen 10.10 out of 12
Air Quality Not available.
Flu Activity Not available.
METAR KROC 020054Z 00000KT 8SM CLR 23/19 A3006 RMK AO2 SLP178 T02280194
Pressure 30.06 in
Visibility 8.0 miles
Clouds Clear
Heat Index 71 °F
Dew Point 69 °F
Humidity 89%
Rainfall 0.00 in
Snow Depth Not available.
UV 0 out of 12
Pollen 10.10 out of 12
Air Quality Not available.
Flu Activity Not available.
METAR KROC 020054Z 00000KT 8SM CLR 23/19 A3006 RMK AO2 SLP178 T02280194

10-Day Weather Forecast

×

Almanac

Astronomy

Sep. 01, 2015 Rise Set
Actual Time
Civil Twilight
Nautical Twilight
Astronomical Twilight
Moon
Length of Visible Light
Length of Day
Tomorrow will be .
, % of the Moon is Illuminated

Today's Extremes

State Highs State Lows

Community

WunderPhotos

Upload Photos

1,851,672 photos uploaded!

WunderBlogs® & News

Nearby

Air Quality

  Air Quality AQ Index Pollutant
Not available.

Snow Depth

Station Depth Elevation

Earthquake Activity

City Distance Mag. Time & Date
Minimum magnitude displayed is 2.5.

Coastal Water Temperatures

Place Temperature

Stations

Nearby Weather Stations

Station Location Temp. Windchill Dew Point Humidity Wind Precip. Elev Updated Type